createdAt,value
2019-04-21T00:02:01.317Z,8.50
2019-04-21T00:04:40.094Z,8.50
2019-04-21T00:07:16.076Z,8.50
2019-04-21T00:09:45.607Z,8.40
2019-04-21T00:12:09.971Z,8.40
2019-04-21T00:14:27.540Z,8.30
2019-04-21T00:16:51.071Z,8.30
2019-04-21T00:19:23.041Z,8.30
2019-04-21T00:21:53.520Z,8.30
2019-04-21T00:24:25.230Z,8.20
2019-04-21T00:27:18.604Z,8.20
2019-04-21T00:29:35.401Z,8.10
2019-04-21T00:31:56.627Z,8.10
2019-04-21T00:34:06.744Z,8.00
2019-04-21T00:36:45.406Z,8.00
2019-04-21T00:39:31.700Z,7.90
2019-04-21T00:41:48.814Z,7.90
2019-04-21T00:44:04.549Z,7.90
2019-04-21T00:46:34.792Z,7.80
2019-04-21T00:49:06.012Z,7.80
2019-04-21T00:51:46.817Z,7.80
2019-04-21T00:54:12.858Z,7.70
2019-04-21T00:56:34.051Z,7.60
2019-04-21T00:58:59.305Z,7.60
2019-04-21T01:01:29.886Z,7.50
2019-04-21T01:03:58.373Z,7.50
2019-04-21T01:06:22.422Z,7.50
2019-04-21T01:08:47.393Z,7.50
2019-04-21T01:11:17.870Z,7.40
2019-04-21T01:13:45.429Z,7.30
2019-04-21T01:16:13.819Z,7.30
2019-04-21T01:18:39.452Z,7.30
2019-04-21T01:20:43.924Z,7.20
2019-04-21T01:23:10.458Z,7.20
2019-04-21T01:25:41.527Z,7.20
2019-04-21T01:28:18.951Z,7.10
2019-04-21T01:30:54.807Z,7.10
2019-04-21T01:33:38.198Z,7.10
2019-04-21T01:35:59.343Z,7.00
2019-04-21T01:38:34.338Z,7.00
2019-04-21T01:41:02.208Z,7.00
2019-04-21T01:43:25.101Z,6.90
2019-04-21T01:45:50.481Z,6.90
2019-04-21T01:48:18.480Z,6.80
2019-04-21T01:50:41.185Z,6.80
2019-04-21T01:53:24.336Z,6.80
2019-04-21T01:56:11.678Z,6.70
2019-04-21T01:58:34.175Z,6.70
2019-04-21T02:01:09.987Z,6.70
2019-04-21T02:06:11.093Z,6.60
2019-04-21T02:08:31.353Z,6.50
2019-04-21T02:11:05.208Z,6.50
2019-04-21T02:13:23.518Z,6.50
2019-04-21T02:16:02.070Z,6.40
2019-04-21T02:18:25.996Z,6.40
2019-04-21T02:20:40.982Z,6.40
2019-04-21T02:25:44.340Z,6.30
2019-04-21T02:28:12.477Z,6.30
2019-04-21T02:33:32.329Z,6.20
2019-04-21T02:35:53.889Z,6.20
2019-04-21T02:38:22.294Z,6.10
2019-04-21T02:40:46.598Z,6.10
2019-04-21T02:45:37.904Z,6.10
2019-04-21T02:50:30.571Z,6.00
2019-04-21T02:52:52.779Z,6.00
2019-04-21T02:55:22.212Z,5.90
2019-04-21T02:58:00.072Z,5.90
2019-04-21T03:00:23.812Z,5.90
2019-04-21T03:03:26.037Z,5.90
2019-04-21T03:11:04.318Z,5.70
2019-04-21T03:13:31.412Z,5.70
2019-04-21T03:20:49.127Z,5.60
2019-04-21T03:25:50.290Z,5.60
2019-04-21T03:28:10.293Z,5.60
2019-04-21T03:35:58.845Z,5.50
2019-04-21T03:37:52.983Z,5.50
2019-04-21T03:42:47.992Z,5.40
2019-04-21T03:45:24.999Z,5.40
2019-04-21T03:47:45.779Z,5.40
2019-04-21T03:52:39.445Z,5.30
2019-04-21T03:55:51.430Z,5.30
2019-04-21T03:58:19.541Z,5.30
2019-04-21T04:00:34.647Z,5.30
2019-04-21T04:11:47.369Z,5.20
2019-04-21T04:16:37.441Z,5.20
2019-04-21T04:19:11.964Z,5.20
2019-04-21T04:24:15.083Z,5.10
2019-04-21T04:26:37.389Z,5.10
2019-04-21T04:28:57.999Z,5.10
2019-04-21T04:31:30.491Z,5.10
2019-04-21T04:34:04.934Z,5.10
2019-04-21T04:38:48.768Z,5.20
2019-04-21T04:43:50.206Z,5.20
2019-04-21T04:46:06.707Z,5.20
2019-04-21T04:48:34.931Z,5.30
2019-04-21T04:51:28.846Z,5.30
2019-04-21T04:53:42.747Z,5.40
2019-04-21T04:56:03.697Z,5.40
2019-04-21T04:58:29.854Z,5.40
2019-04-21T05:01:04.961Z,5.50
2019-04-21T05:03:24.312Z,5.60
2019-04-21T05:09:02.884Z,5.80
2019-04-21T05:11:36.758Z,5.90
2019-04-21T05:13:43.468Z,6.00
2019-04-21T05:16:09.971Z,6.10
2019-04-21T05:18:50.279Z,6.20
2019-04-21T05:21:16.103Z,6.30
2019-04-21T05:23:29.277Z,6.40
2019-04-21T05:25:47.093Z,6.50
2019-04-21T05:28:11.363Z,6.60
2019-04-21T05:30:58.374Z,6.80
2019-04-21T05:33:39.994Z,6.90
2019-04-21T05:36:09.403Z,7.00
2019-04-21T05:38:53.102Z,7.20
2019-04-21T05:41:15.530Z,7.20
2019-04-21T05:43:51.444Z,7.40
2019-04-21T05:46:21.751Z,7.50
2019-04-21T05:48:52.549Z,7.60
2019-04-21T05:51:14.889Z,7.70
2019-04-21T05:53:48.238Z,7.90
2019-04-21T05:56:20.692Z,8.20
2019-04-21T05:58:39.478Z,8.80
2019-04-21T06:03:47.575Z,9.90
2019-04-21T06:06:14.153Z,10.50
2019-04-21T06:08:31.859Z,11.10
2019-04-21T06:11:05.474Z,11.60
2019-04-21T06:13:38.463Z,12.20
2019-04-21T06:15:58.912Z,12.90
2019-04-21T06:18:27.190Z,13.50
2019-04-21T06:20:46.670Z,14.20
2019-04-21T06:23:20.981Z,14.90
2019-04-21T06:25:55.697Z,15.20
2019-04-21T06:28:13.743Z,15.80
2019-04-21T06:30:44.746Z,16.40
2019-04-21T06:33:04.900Z,16.90
2019-04-21T06:36:21.603Z,17.40
2019-04-21T06:38:21.896Z,17.80
2019-04-21T06:40:47.988Z,18.30
2019-04-21T06:43:25.955Z,18.60
2019-04-21T06:45:39.993Z,19.10
2019-04-21T06:48:11.233Z,19.20
2019-04-21T06:50:41.245Z,19.10
2019-04-21T06:53:07.129Z,19.80
2019-04-21T06:55:27.888Z,19.80
2019-04-21T06:57:54.323Z,20.00
2019-04-21T07:00:18.446Z,19.90
2019-04-21T07:02:59.967Z,20.20
2019-04-21T07:05:21.780Z,20.40
2019-04-21T07:07:43.397Z,20.60
2019-04-21T07:10:12.184Z,21.10
2019-04-21T07:12:37.286Z,21.00
2019-04-21T07:15:03.374Z,21.50
2019-04-21T07:17:35.165Z,21.60
2019-04-21T07:20:08.406Z,21.30
2019-04-21T07:22:35.364Z,21.20
2019-04-21T07:25:00.340Z,20.70
2019-04-21T07:27:23.980Z,20.30
2019-04-21T07:29:55.086Z,20.50
2019-04-21T07:32:19.130Z,20.40
2019-04-21T07:34:44.856Z,20.70
2019-04-21T07:37:06.012Z,21.00
2019-04-21T07:39:32.624Z,20.80
2019-04-21T07:42:01.659Z,20.90
2019-04-21T07:44:29.046Z,20.50
2019-04-21T07:46:50.472Z,20.70
2019-04-21T07:49:50.117Z,20.60
2019-04-21T07:52:28.575Z,20.80
2019-04-21T07:54:57.474Z,20.50
2019-04-21T07:57:17.075Z,20.60
2019-04-21T08:00:03.564Z,20.90
2019-04-21T08:02:16.976Z,21.10
2019-04-21T08:04:57.807Z,21.10
2019-04-21T08:07:05.241Z,21.00
2019-04-21T08:09:42.597Z,21.40
2019-04-21T08:11:57.409Z,21.50
2019-04-21T08:14:31.214Z,21.30
2019-04-21T08:16:58.945Z,21.40
2019-04-21T08:19:25.192Z,21.20
2019-04-21T08:22:03.847Z,21.10
2019-04-21T08:24:20.056Z,21.00
2019-04-21T08:26:53.122Z,21.00
2019-04-21T08:29:20.381Z,21.00
2019-04-21T08:31:49.897Z,21.00
2019-04-21T08:36:35.526Z,21.20
2019-04-21T08:39:01.073Z,21.20
2019-04-21T08:41:27.908Z,21.00
2019-04-21T08:44:01.996Z,21.20
2019-04-21T08:46:25.869Z,21.30
2019-04-21T08:48:55.445Z,21.50
2019-04-21T08:51:33.393Z,21.50
2019-04-21T08:53:48.956Z,21.70
2019-04-21T08:56:40.119Z,21.80
2019-04-21T08:59:28.495Z,21.70
2019-04-21T09:02:01.389Z,21.80
2019-04-21T09:04:41.175Z,22.00
2019-04-21T09:09:22.398Z,22.40
2019-04-21T09:11:50.983Z,22.20
2019-04-21T09:14:20.671Z,22.30
2019-04-21T09:16:37.019Z,22.20
2019-04-21T09:19:04.474Z,22.10
2019-04-21T09:21:41.679Z,22.40
2019-04-21T09:24:10.298Z,22.20
2019-04-21T09:26:31.072Z,22.20
2019-04-21T09:28:52.111Z,22.20
2019-04-21T09:31:08.935Z,22.20
2019-04-21T09:33:42.510Z,22.30
2019-04-21T09:36:06.406Z,22.40
2019-04-21T09:38:36.253Z,22.70
2019-04-21T09:40:56.491Z,22.60
2019-04-21T09:43:30.804Z,22.50
2019-04-21T09:45:49.778Z,22.60
2019-04-21T09:48:18.727Z,22.70
2019-04-21T09:50:43.298Z,22.80
2019-04-21T09:53:16.802Z,23.00
2019-04-21T09:55:45.311Z,23.10
2019-04-21T09:58:13.468Z,23.30
2019-04-21T10:00:36.338Z,23.30
2019-04-21T10:03:02.898Z,23.50
2019-04-21T10:05:25.083Z,23.80
2019-04-21T10:07:50.802Z,24.10
2019-04-21T10:10:17.291Z,24.20
2019-04-21T10:12:43.370Z,23.90
2019-04-21T10:15:10.655Z,24.10
2019-04-21T10:17:39.840Z,24.20
2019-04-21T10:20:07.179Z,24.50
2019-04-21T10:22:33.048Z,24.60
2019-04-21T10:24:58.562Z,24.60
2019-04-21T10:27:25.256Z,24.60
2019-04-21T10:29:52.199Z,24.50
2019-04-21T10:32:21.612Z,24.80
2019-04-21T10:34:45.641Z,24.90
2019-04-21T10:37:11.258Z,25.10
2019-04-21T10:39:37.753Z,25.40
2019-04-21T10:42:03.543Z,25.30
2019-04-21T10:44:29.422Z,25.20
2019-04-21T10:46:56.003Z,25.20
2019-04-21T10:49:22.690Z,25.10
2019-04-21T10:51:49.151Z,25.10
2019-04-21T10:54:15.743Z,25.30
2019-04-21T10:56:43.863Z,25.20
2019-04-21T10:59:08.157Z,25.20
2019-04-21T11:01:34.657Z,25.20
2019-04-21T11:04:23.645Z,25.30
2019-04-21T11:06:46.415Z,25.10
2019-04-21T11:09:12.209Z,25.30
2019-04-21T11:11:37.798Z,25.50
2019-04-21T11:14:04.262Z,25.40
2019-04-21T11:16:30.970Z,25.40
2019-04-21T11:18:57.972Z,25.30
2019-04-21T11:21:24.818Z,25.50
2019-04-21T11:23:51.918Z,25.60
2019-04-21T11:26:18.059Z,25.70
2019-04-21T11:28:45.082Z,25.90
2019-04-21T11:31:11.122Z,26.00
2019-04-21T11:33:37.598Z,25.90
2019-04-21T11:36:04.335Z,26.00
2019-04-21T11:38:58.207Z,26.30
2019-04-21T11:41:07.675Z,26.50
2019-04-21T11:43:34.957Z,26.60
2019-04-21T11:46:00.506Z,26.80
2019-04-21T11:48:28.401Z,26.70
2019-04-21T11:50:55.081Z,26.30
2019-04-21T11:53:21.028Z,26.50
2019-04-21T11:55:48.856Z,26.70
2019-04-21T11:58:14.062Z,26.60
2019-04-21T12:00:39.979Z,26.50
2019-04-21T12:03:05.782Z,26.60
2019-04-21T12:05:31.198Z,26.80
2019-04-21T12:07:58.529Z,27.00
2019-04-21T12:10:23.789Z,27.00
2019-04-21T12:12:50.848Z,27.10
2019-04-21T12:15:16.750Z,26.90
2019-04-21T12:17:42.107Z,26.70
2019-04-21T12:20:08.659Z,26.30
2019-04-21T12:22:35.664Z,26.50
2019-04-21T12:25:03.041Z,26.50
2019-04-21T12:27:29.940Z,26.70
2019-04-21T12:29:55.770Z,26.90
2019-04-21T12:32:49.318Z,26.90
2019-04-21T12:35:15.762Z,26.60
2019-04-21T12:37:42.667Z,26.20
2019-04-21T12:40:08.613Z,26.40
2019-04-21T12:42:38.752Z,26.90
2019-04-21T12:45:03.589Z,27.20
2019-04-21T12:47:30.195Z,27.20
2019-04-21T12:49:56.989Z,27.00
2019-04-21T12:52:23.901Z,27.10
2019-04-21T12:54:49.438Z,27.30
2019-04-21T12:57:14.790Z,27.50
2019-04-21T12:59:40.175Z,27.40
2019-04-21T13:02:05.533Z,27.50
2019-04-21T13:04:31.581Z,27.30
2019-04-21T13:06:57.347Z,26.90
2019-04-21T13:09:24.129Z,27.30
2019-04-21T13:11:50.986Z,27.00
2019-04-21T13:14:17.727Z,26.50
2019-04-21T13:16:43.498Z,26.80
2019-04-21T13:19:11.338Z,26.80
2019-04-21T13:21:38.058Z,26.50
2019-04-21T13:24:05.201Z,26.80
2019-04-21T13:26:42.460Z,26.80
2019-04-21T13:28:58.392Z,27.00
2019-04-21T13:31:24.958Z,27.10
2019-04-21T13:33:50.381Z,26.80
2019-04-21T13:36:15.888Z,27.00
2019-04-21T13:39:35.976Z,27.10
2019-04-21T13:41:42.970Z,27.30
2019-04-21T13:44:13.319Z,27.00
2019-04-21T13:46:40.424Z,27.20
2019-04-21T13:49:07.451Z,27.70
2019-04-21T13:51:34.082Z,27.90
2019-04-21T13:53:59.679Z,28.00
2019-04-21T13:56:26.598Z,27.70
2019-04-21T13:58:53.338Z,27.60
2019-04-21T14:01:19.059Z,27.50
2019-04-21T14:03:44.438Z,27.40
2019-04-21T14:06:09.872Z,27.20
2019-04-21T14:08:45.252Z,27.10
2019-04-21T14:11:11.390Z,27.20
2019-04-21T14:13:38.233Z,27.00
2019-04-21T14:16:04.100Z,26.90
2019-04-21T14:18:30.895Z,26.50
2019-04-21T14:20:57.437Z,26.20
2019-04-21T14:23:31.755Z,26.50
2019-04-21T14:25:50.124Z,26.50
2019-04-21T14:28:15.762Z,26.30
2019-04-21T14:30:44.298Z,26.10
2019-04-21T14:33:14.203Z,26.30
2019-04-21T14:35:41.053Z,26.50
2019-04-21T14:38:06.936Z,26.40
2019-04-21T14:40:35.546Z,26.30
2019-04-21T14:43:02.474Z,26.20
2019-04-21T14:45:42.955Z,26.20
2019-04-21T14:48:27.282Z,26.10
2019-04-21T14:51:11.236Z,26.00
2019-04-21T14:53:47.808Z,26.00
2019-04-21T14:56:13.351Z,25.50
2019-04-21T14:58:39.251Z,25.00
2019-04-21T15:01:08.319Z,25.20
2019-04-21T15:03:34.237Z,24.80
2019-04-21T15:06:01.099Z,24.90
2019-04-21T15:08:27.036Z,24.80
2019-04-21T15:10:52.910Z,24.90
2019-04-21T15:13:19.488Z,24.80
2019-04-21T15:15:45.727Z,24.70
2019-04-21T15:18:12.496Z,24.50
2019-04-21T15:20:38.467Z,24.30
2019-04-21T15:23:04.256Z,24.40
2019-04-21T15:25:30.170Z,24.30
2019-04-21T15:27:56.893Z,24.20
2019-04-21T15:30:22.676Z,23.90
2019-04-21T15:32:48.520Z,23.80
2019-04-21T15:35:15.285Z,23.70
2019-04-21T15:37:42.055Z,23.60
2019-04-21T15:40:18.112Z,23.60
2019-04-21T15:42:34.945Z,23.30
2019-04-21T15:45:00.912Z,23.20
2019-04-21T15:47:28.168Z,22.90
2019-04-21T15:50:00.907Z,22.90
2019-04-21T15:52:22.279Z,22.80
2019-04-21T15:54:47.762Z,22.80
2019-04-21T15:57:19.581Z,22.70
2019-04-21T15:59:52.811Z,22.60
2019-04-21T16:02:38.272Z,22.60
2019-04-21T16:05:04.758Z,22.50
2019-04-21T16:07:30.254Z,22.30
2019-04-21T16:09:55.645Z,22.20
2019-04-21T16:12:22.067Z,22.10
2019-04-21T16:14:50.382Z,22.00
2019-04-21T16:17:17.084Z,22.00
2019-04-21T16:19:43.847Z,21.90
2019-04-21T16:22:10.701Z,21.90
2019-04-21T16:24:37.679Z,21.80
2019-04-21T16:27:06.594Z,21.70
2019-04-21T16:29:31.209Z,21.60
2019-04-21T16:31:57.393Z,21.60
2019-04-21T16:34:35.405Z,21.60
2019-04-21T16:36:49.918Z,21.50
2019-04-21T16:39:15.714Z,21.40
2019-04-21T16:41:42.409Z,21.40
2019-04-21T16:44:09.297Z,21.30
2019-04-21T16:46:35.716Z,21.30
2019-04-21T16:49:02.006Z,21.20
2019-04-21T16:51:28.501Z,21.20
2019-04-21T16:54:01.798Z,21.10
2019-04-21T16:56:41.783Z,21.00
2019-04-21T16:59:14.974Z,21.00
2019-04-21T17:01:40.695Z,20.90
2019-04-21T17:04:06.639Z,20.90
2019-04-21T17:06:33.216Z,20.80
2019-04-21T17:08:59.094Z,20.80
2019-04-21T17:11:30.424Z,20.70
2019-04-21T17:13:52.008Z,20.60
2019-04-21T17:16:44.755Z,20.60
2019-04-21T17:18:58.493Z,20.50
2019-04-21T17:21:13.299Z,20.50
2019-04-21T17:23:40.703Z,20.40
2019-04-21T17:26:06.650Z,20.30
2019-04-21T17:28:32.030Z,20.20
2019-04-21T17:30:58.168Z,20.20
2019-04-21T17:33:27.961Z,20.00
2019-04-21T17:35:51.148Z,20.00
2019-04-21T17:38:16.605Z,19.90
2019-04-21T17:40:42.211Z,19.80
2019-04-21T17:43:11.205Z,19.70
2019-04-21T17:45:35.247Z,19.60
2019-04-21T17:48:08.079Z,19.50
2019-04-21T17:50:51.619Z,19.40
2019-04-21T17:53:26.502Z,19.30
2019-04-21T17:55:52.944Z,19.20
2019-04-21T17:58:27.872Z,19.10
2019-04-21T18:01:10.142Z,19.00
2019-04-21T18:03:40.405Z,18.90
2019-04-21T18:05:52.902Z,18.70
2019-04-21T18:08:25.513Z,18.60
2019-04-21T18:10:45.301Z,18.50
2019-04-21T18:13:05.980Z,18.40
2019-04-21T18:15:40.129Z,18.20
2019-04-21T18:17:54.499Z,18.10
2019-04-21T18:20:23.917Z,18.00
2019-04-21T18:23:15.059Z,17.90
2019-04-21T18:25:45.073Z,17.70
2019-04-21T18:28:02.813Z,17.70
2019-04-21T18:30:46.830Z,17.50
2019-04-21T18:33:21.379Z,17.40
2019-04-21T18:35:58.589Z,17.30
2019-04-21T18:38:55.243Z,17.20
2019-04-21T18:41:01.444Z,17.10
2019-04-21T18:44:02.822Z,16.90
2019-04-21T18:46:33.080Z,16.80
2019-04-21T18:48:57.562Z,16.70
2019-04-21T18:51:34.720Z,16.60
2019-04-21T18:54:20.909Z,16.40
2019-04-21T18:56:27.627Z,16.30
2019-04-21T18:58:54.226Z,16.20
2019-04-21T19:01:25.947Z,16.10
2019-04-21T19:03:50.478Z,16.00
2019-04-21T19:06:18.690Z,15.90
2019-04-21T19:11:31.168Z,15.70
2019-04-21T19:16:41.588Z,15.50
2019-04-21T19:19:34.157Z,15.40
2019-04-21T19:21:31.149Z,15.30
2019-04-21T19:24:10.824Z,15.20
2019-04-21T19:26:33.998Z,15.10
2019-04-21T19:29:01.549Z,14.90
2019-04-21T19:31:26.197Z,14.80
2019-04-21T19:33:41.133Z,14.70
2019-04-21T19:35:57.433Z,14.70
2019-04-21T19:38:35.485Z,14.60
2019-04-21T19:41:10.340Z,14.50
2019-04-21T19:43:41.661Z,14.40
2019-04-21T19:46:08.201Z,14.30
2019-04-21T19:48:33.286Z,14.30
2019-04-21T19:50:57.609Z,14.20
2019-04-21T19:53:25.336Z,14.10
2019-04-21T19:55:34.055Z,14.00
2019-04-21T19:58:00.941Z,13.90
2019-04-21T20:00:26.676Z,13.80
2019-04-21T20:02:52.338Z,13.80
2019-04-21T20:05:25.604Z,13.70
2019-04-21T20:08:04.052Z,13.60
2019-04-21T20:10:33.655Z,13.50
2019-04-21T20:12:57.006Z,13.40
2019-04-21T20:15:31.402Z,13.30
2019-04-21T20:17:50.069Z,13.20
2019-04-21T20:20:03.736Z,13.20
2019-04-21T20:22:34.998Z,13.10
2019-04-21T20:25:04.708Z,13.10
2019-04-21T20:27:36.222Z,13.00
2019-04-21T20:30:05.610Z,12.90
2019-04-21T20:32:38.320Z,12.90
2019-04-21T20:35:12.479Z,12.90
2019-04-21T20:37:25.235Z,12.80
2019-04-21T20:39:47.018Z,12.80
2019-04-21T20:42:20.996Z,12.80
2019-04-21T20:44:52.841Z,12.80
2019-04-21T20:47:13.143Z,12.80
2019-04-21T20:49:39.737Z,12.80
2019-04-21T20:52:33.624Z,12.80
2019-04-21T20:54:48.273Z,12.80
2019-04-21T20:57:18.969Z,12.80
2019-04-21T20:59:40.882Z,12.70
2019-04-21T21:02:10.133Z,12.70
2019-04-21T21:04:31.737Z,12.70
2019-04-21T21:07:09.143Z,12.70
2019-04-21T21:09:33.799Z,12.60
2019-04-21T21:12:14.984Z,12.60
2019-04-21T21:14:29.263Z,12.50
2019-04-21T21:16:57.893Z,12.40
2019-04-21T21:19:33.224Z,12.40
2019-04-21T21:21:49.710Z,12.30
2019-04-21T21:24:21.925Z,12.20
2019-04-21T21:26:51.785Z,12.20
2019-04-21T21:29:07.102Z,12.10
2019-04-21T21:31:42.116Z,12.10
2019-04-21T21:34:09.529Z,12.00
2019-04-21T21:36:31.830Z,12.00
2019-04-21T21:39:03.154Z,11.90
2019-04-21T21:41:21.610Z,11.80
2019-04-21T21:43:39.239Z,11.70
2019-04-21T21:46:21.523Z,11.70
2019-04-21T21:48:48.956Z,11.60
2019-04-21T21:51:05.771Z,11.60
2019-04-21T21:53:28.629Z,11.50
2019-04-21T21:55:53.043Z,11.40
2019-04-21T21:58:25.107Z,11.30
2019-04-21T22:00:53.227Z,11.30
2019-04-21T22:03:20.995Z,11.20
2019-04-21T22:05:50.408Z,11.20
2019-04-21T22:08:08.058Z,11.10
2019-04-21T22:10:34.856Z,11.00
2019-04-21T22:13:08.240Z,11.00
2019-04-21T22:15:30.277Z,10.90
2019-04-21T22:18:19.364Z,10.90
2019-04-21T22:20:37.791Z,10.80
2019-04-21T22:22:56.232Z,10.80
2019-04-21T22:25:22.649Z,10.70
2019-04-21T22:27:43.537Z,10.70
2019-04-21T22:30:12.823Z,10.60
2019-04-21T22:32:38.249Z,10.50
2019-04-21T22:35:09.163Z,10.50
2019-04-21T22:37:43.732Z,10.40
2019-04-21T22:40:12.710Z,10.30
2019-04-21T22:42:33.207Z,10.30
2019-04-21T22:44:54.544Z,10.30
2019-04-21T22:47:25.166Z,10.20
2019-04-21T22:49:48.560Z,10.20
2019-04-21T22:52:17.107Z,10.00
2019-04-21T22:54:43.525Z,10.00
2019-04-21T22:57:14.804Z,10.00
2019-04-21T22:59:35.640Z,9.90
2019-04-21T23:02:06.414Z,9.90
2019-04-21T23:04:38.065Z,9.80
2019-04-21T23:07:02.183Z,9.70
2019-04-21T23:09:24.544Z,9.70
2019-04-21T23:11:51.442Z,9.60
2019-04-21T23:14:18.856Z,9.60
2019-04-21T23:16:46.306Z,9.50
2019-04-21T23:19:31.399Z,9.50
2019-04-21T23:22:01.014Z,9.50
2019-04-21T23:24:31.620Z,9.40
2019-04-21T23:26:46.267Z,9.40
2019-04-21T23:29:17.352Z,9.30
2019-04-21T23:31:48.288Z,9.30
2019-04-21T23:33:54.733Z,9.20
2019-04-21T23:36:25.924Z,9.20
2019-04-21T23:38:49.829Z,9.10
2019-04-21T23:41:15.297Z,9.10
2019-04-21T23:43:40.676Z,9.00
2019-04-21T23:46:14.838Z,9.00
2019-04-21T23:48:48.692Z,9.00
2019-04-21T23:51:14.017Z,8.90
2019-04-21T23:53:27.010Z,8.80
2019-04-21T23:55:53.039Z,8.80
2019-04-21T23:58:25.087Z,8.70
